sensor_id;sensor_type;location;lat;lon;timestamp;P1;durP1;ratioP1;P2;durP2;ratioP2
70757;SDS011;59316;52.964;7.102;2023-06-01T00:01:47;14.38;;;3.95;;
70757;SDS011;59316;52.964;7.102;2023-06-01T00:07:09;14.15;;;4.18;;
70757;SDS011;59316;52.964;7.102;2023-06-01T00:12:31;11.70;;;4.57;;
70757;SDS011;59316;52.964;7.102;2023-06-01T00:17:52;13.68;;;4.65;;
70757;SDS011;59316;52.964;7.102;2023-06-01T00:23:14;12.00;;;4.18;;
70757;SDS011;59316;52.964;7.102;2023-06-01T00:28:35;11.10;;;4.18;;
70757;SDS011;59316;52.964;7.102;2023-06-01T00:33:57;11.93;;;4.80;;
70757;SDS011;59316;52.964;7.102;2023-06-01T00:39:18;10.85;;;4.03;;
70757;SDS011;59316;52.964;7.102;2023-06-01T00:44:40;11.30;;;4.72;;
70757;SDS011;59316;52.964;7.102;2023-06-01T00:50:01;11.75;;;4.30;;
70757;SDS011;59316;52.964;7.102;2023-06-01T00:55:23;14.18;;;4.75;;
70757;SDS011;59316;52.964;7.102;2023-06-01T01:00:44;12.55;;;4.90;;
70757;SDS011;59316;52.964;7.102;2023-06-01T01:06:10;13.23;;;4.75;;
70757;SDS011;59316;52.964;7.102;2023-06-01T01:12:06;11.32;;;4.75;;
70757;SDS011;59316;52.964;7.102;2023-06-01T01:17:43;11.10;;;4.68;;
70757;SDS011;59316;52.964;7.102;2023-06-01T01:29:10;14.38;;;4.70;;
70757;SDS011;59316;52.964;7.102;2023-06-01T01:34:35;12.23;;;5.07;;
70757;SDS011;59316;52.964;7.102;2023-06-01T01:39:57;17.55;;;4.72;;
70757;SDS011;59316;52.964;7.102;2023-06-01T01:45:18;10.13;;;4.57;;
70757;SDS011;59316;52.964;7.102;2023-06-01T01:50:51;14.35;;;5.40;;
70757;SDS011;59316;52.964;7.102;2023-06-01T01:56:19;17.25;;;4.90;;
70757;SDS011;59316;52.964;7.102;2023-06-01T02:01:40;12.40;;;4.53;;
70757;SDS011;59316;52.964;7.102;2023-06-01T02:07:02;12.35;;;4.28;;
70757;SDS011;59316;52.964;7.102;2023-06-01T02:12:26;8.23;;;3.85;;
70757;SDS011;59316;52.964;7.102;2023-06-01T02:17:47;9.88;;;4.15;;
70757;SDS011;59316;52.964;7.102;2023-06-01T02:23:09;10.30;;;3.58;;
70757;SDS011;59316;52.964;7.102;2023-06-01T02:28:30;12.80;;;3.90;;
70757;SDS011;59316;52.964;7.102;2023-06-01T02:33:52;12.55;;;3.75;;
70757;SDS011;59316;52.964;7.102;2023-06-01T02:39:14;9.18;;;3.85;;
70757;SDS011;59316;52.964;7.102;2023-06-01T02:44:36;10.77;;;3.38;;
70757;SDS011;59316;52.964;7.102;2023-06-01T02:49:57;8.60;;;3.97;;
70757;SDS011;59316;52.964;7.102;2023-06-01T02:55:19;10.40;;;3.60;;
70757;SDS011;59316;52.964;7.102;2023-06-01T03:01:01;7.60;;;3.50;;
70757;SDS011;59316;52.964;7.102;2023-06-01T03:06:23;13.15;;;3.67;;
70757;SDS011;59316;52.964;7.102;2023-06-01T03:12:03;12.60;;;3.42;;
70757;SDS011;59316;52.964;7.102;2023-06-01T03:17:26;6.53;;;3.30;;
70757;SDS011;59316;52.964;7.102;2023-06-01T03:22:48;6.05;;;3.22;;
70757;SDS011;59316;52.964;7.102;2023-06-01T03:28:12;13.38;;;3.05;;
70757;SDS011;59316;52.964;7.102;2023-06-01T03:33:36;12.67;;;4.10;;
70757;SDS011;59316;52.964;7.102;2023-06-01T03:38:58;10.18;;;3.90;;
70757;SDS011;59316;52.964;7.102;2023-06-01T03:44:20;10.20;;;4.43;;
70757;SDS011;59316;52.964;7.102;2023-06-01T03:49:42;10.57;;;4.70;;
70757;SDS011;59316;52.964;7.102;2023-06-01T03:55:05;11.27;;;3.83;;
70757;SDS011;59316;52.964;7.102;2023-06-01T04:00:46;12.32;;;4.15;;
70757;SDS011;59316;52.964;7.102;2023-06-01T04:06:08;11.35;;;4.53;;
70757;SDS011;59316;52.964;7.102;2023-06-01T04:11:29;12.73;;;4.60;;
70757;SDS011;59316;52.964;7.102;2023-06-01T04:16:50;13.32;;;4.55;;
70757;SDS011;59316;52.964;7.102;2023-06-01T04:22:12;9.88;;;4.22;;
70757;SDS011;59316;52.964;7.102;2023-06-01T04:27:34;11.60;;;4.50;;
70757;SDS011;59316;52.964;7.102;2023-06-01T04:32:56;12.35;;;5.00;;
70757;SDS011;59316;52.964;7.102;2023-06-01T04:38:18;13.07;;;4.03;;
70757;SDS011;59316;52.964;7.102;2023-06-01T04:43:43;10.82;;;4.32;;
70757;SDS011;59316;52.964;7.102;2023-06-01T04:49:04;15.57;;;4.68;;
70757;SDS011;59316;52.964;7.102;2023-06-01T04:54:26;10.20;;;4.50;;
70757;SDS011;59316;52.964;7.102;2023-06-01T04:59:47;9.02;;;4.05;;
70757;SDS011;59316;52.964;7.102;2023-06-01T05:05:09;13.85;;;4.47;;
70757;SDS011;59316;52.964;7.102;2023-06-01T05:10:32;9.00;;;4.07;;
70757;SDS011;59316;52.964;7.102;2023-06-01T05:15:53;12.65;;;4.25;;
70757;SDS011;59316;52.964;7.102;2023-06-01T05:21:15;12.70;;;5.03;;
70757;SDS011;59316;52.964;7.102;2023-06-01T05:26:37;12.00;;;4.28;;
70757;SDS011;59316;52.964;7.102;2023-06-01T05:31:58;14.25;;;5.53;;
70757;SDS011;59316;52.964;7.102;2023-06-01T05:37:19;12.05;;;5.43;;
70757;SDS011;59316;52.964;7.102;2023-06-01T05:42:41;11.18;;;5.25;;
70757;SDS011;59316;52.964;7.102;2023-06-01T05:48:03;16.25;;;4.80;;
70757;SDS011;59316;52.964;7.102;2023-06-01T05:53:25;15.80;;;4.72;;
70757;SDS011;59316;52.964;7.102;2023-06-01T05:58:47;10.27;;;4.78;;
70757;SDS011;59316;52.964;7.102;2023-06-01T06:04:08;10.25;;;3.90;;
70757;SDS011;59316;52.964;7.102;2023-06-01T06:09:30;7.72;;;4.05;;
70757;SDS011;59316;52.964;7.102;2023-06-01T06:14:51;10.23;;;3.97;;
70757;SDS011;59316;52.964;7.102;2023-06-01T06:20:13;8.25;;;3.58;;
70757;SDS011;59316;52.964;7.102;2023-06-01T06:25:34;9.57;;;4.13;;
70757;SDS011;59316;52.964;7.102;2023-06-01T06:30:57;9.55;;;4.22;;
70757;SDS011;59316;52.964;7.102;2023-06-01T06:36:19;10.43;;;4.05;;
70757;SDS011;59316;52.964;7.102;2023-06-01T06:41:41;8.80;;;3.28;;
70757;SDS011;59316;52.964;7.102;2023-06-01T06:47:02;7.85;;;2.45;;
70757;SDS011;59316;52.964;7.102;2023-06-01T06:52:25;5.28;;;1.98;;
70757;SDS011;59316;52.964;7.102;2023-06-01T06:57:46;3.13;;;1.25;;
70757;SDS011;59316;52.964;7.102;2023-06-01T07:03:08;4.40;;;1.48;;
70757;SDS011;59316;52.964;7.102;2023-06-01T07:08:30;6.97;;;1.88;;
70757;SDS011;59316;52.964;7.102;2023-06-01T07:13:51;3.85;;;1.27;;
70757;SDS011;59316;52.964;7.102;2023-06-01T07:19:13;4.22;;;1.70;;
70757;SDS011;59316;52.964;7.102;2023-06-01T07:24:34;2.47;;;1.13;;
70757;SDS011;59316;52.964;7.102;2023-06-01T07:29:56;1.17;;;0.80;;
70757;SDS011;59316;52.964;7.102;2023-06-01T07:35:17;3.40;;;0.93;;
70757;SDS011;59316;52.964;7.102;2023-06-01T07:40:39;2.97;;;1.23;;
70757;SDS011;59316;52.964;7.102;2023-06-01T07:46:00;3.47;;;1.20;;
70757;SDS011;59316;52.964;7.102;2023-06-01T07:51:22;0.98;;;0.65;;
70757;SDS011;59316;52.964;7.102;2023-06-01T07:56:44;2.10;;;0.80;;
70757;SDS011;59316;52.964;7.102;2023-06-01T08:02:05;1.73;;;1.00;;
70757;SDS011;59316;52.964;7.102;2023-06-01T08:07:27;1.45;;;0.98;;
70757;SDS011;59316;52.964;7.102;2023-06-01T08:12:49;3.25;;;1.35;;
70757;SDS011;59316;52.964;7.102;2023-06-01T08:18:10;5.00;;;1.48;;
70757;SDS011;59316;52.964;7.102;2023-06-01T08:23:32;4.38;;;1.63;;
70757;SDS011;59316;52.964;7.102;2023-06-01T08:28:53;2.50;;;1.80;;
70757;SDS011;59316;52.964;7.102;2023-06-01T08:34:15;7.22;;;1.75;;
70757;SDS011;59316;52.964;7.102;2023-06-01T08:39:36;7.18;;;2.00;;
70757;SDS011;59316;52.964;7.102;2023-06-01T08:44:58;5.40;;;2.60;;
70757;SDS011;59316;52.964;7.102;2023-06-01T08:50:20;6.43;;;2.17;;
70757;SDS011;59316;52.964;7.102;2023-06-01T08:55:41;4.00;;;2.08;;
70757;SDS011;59316;52.964;7.102;2023-06-01T09:01:03;3.53;;;2.10;;
70757;SDS011;59316;52.964;7.102;2023-06-01T09:06:24;6.38;;;2.60;;
70757;SDS011;59316;52.964;7.102;2023-06-01T09:11:46;4.82;;;2.55;;
70757;SDS011;59316;52.964;7.102;2023-06-01T09:17:10;5.78;;;2.70;;
70757;SDS011;59316;52.964;7.102;2023-06-01T09:22:43;8.75;;;2.60;;
70757;SDS011;59316;52.964;7.102;2023-06-01T09:28:07;6.32;;;2.70;;
70757;SDS011;59316;52.964;7.102;2023-06-01T09:33:28;5.40;;;2.45;;
70757;SDS011;59316;52.964;7.102;2023-06-01T09:38:49;5.53;;;2.53;;
70757;SDS011;59316;52.964;7.102;2023-06-01T09:44:11;9.30;;;3.00;;
70757;SDS011;59316;52.964;7.102;2023-06-01T09:49:44;12.48;;;3.10;;
70757;SDS011;59316;52.964;7.102;2023-06-01T09:55:06;4.68;;;2.50;;
70757;SDS011;59316;52.964;7.102;2023-06-01T10:05:50;11.52;;;2.85;;
70757;SDS011;59316;52.964;7.102;2023-06-01T10:11:12;4.95;;;2.30;;
70757;SDS011;59316;52.964;7.102;2023-06-01T10:16:33;8.23;;;2.80;;
70757;SDS011;59316;52.964;7.102;2023-06-01T10:21:58;6.00;;;2.33;;
70757;SDS011;59316;52.964;7.102;2023-06-01T10:27:27;5.88;;;2.35;;
70757;SDS011;59316;52.964;7.102;2023-06-01T10:33:00;6.05;;;2.03;;
70757;SDS011;59316;52.964;7.102;2023-06-01T10:38:22;13.25;;;2.88;;
70757;SDS011;59316;52.964;7.102;2023-06-01T10:43:44;11.10;;;2.25;;
70757;SDS011;59316;52.964;7.102;2023-06-01T10:49:05;7.63;;;2.70;;
70757;SDS011;59316;52.964;7.102;2023-06-01T10:54:28;9.98;;;2.60;;
70757;SDS011;59316;52.964;7.102;2023-06-01T11:05:51;8.27;;;2.35;;
70757;SDS011;59316;52.964;7.102;2023-06-01T11:11:12;10.43;;;2.63;;
70757;SDS011;59316;52.964;7.102;2023-06-01T11:16:34;7.00;;;2.30;;
70757;SDS011;59316;52.964;7.102;2023-06-01T11:21:56;7.78;;;2.47;;
70757;SDS011;59316;52.964;7.102;2023-06-01T11:27:19;4.85;;;2.47;;
70757;SDS011;59316;52.964;7.102;2023-06-01T11:32:41;6.47;;;2.42;;
70757;SDS011;59316;52.964;7.102;2023-06-01T11:38:03;7.72;;;2.45;;
70757;SDS011;59316;52.964;7.102;2023-06-01T11:43:29;6.78;;;2.45;;
70757;SDS011;59316;52.964;7.102;2023-06-01T11:48:58;8.43;;;2.45;;
70757;SDS011;59316;52.964;7.102;2023-06-01T11:54:23;7.32;;;2.40;;
70757;SDS011;59316;52.964;7.102;2023-06-01T12:05:09;9.05;;;2.60;;
70757;SDS011;59316;52.964;7.102;2023-06-01T12:10:30;6.95;;;2.45;;
70757;SDS011;59316;52.964;7.102;2023-06-01T12:15:52;8.23;;;2.40;;
70757;SDS011;59316;52.964;7.102;2023-06-01T12:21:13;7.18;;;2.55;;
70757;SDS011;59316;52.964;7.102;2023-06-01T12:26:36;6.28;;;2.03;;
70757;SDS011;59316;52.964;7.102;2023-06-01T12:31:57;6.50;;;2.15;;
70757;SDS011;59316;52.964;7.102;2023-06-01T12:37:18;5.07;;;2.00;;
70757;SDS011;59316;52.964;7.102;2023-06-01T12:42:41;4.65;;;2.08;;
70757;SDS011;59316;52.964;7.102;2023-06-01T12:48:02;8.75;;;2.17;;
70757;SDS011;59316;52.964;7.102;2023-06-01T12:53:24;11.70;;;2.53;;
70757;SDS011;59316;52.964;7.102;2023-06-01T12:58:46;6.43;;;2.40;;
70757;SDS011;59316;52.964;7.102;2023-06-01T13:04:08;6.85;;;2.20;;
70757;SDS011;59316;52.964;7.102;2023-06-01T13:09:29;7.30;;;2.40;;
70757;SDS011;59316;52.964;7.102;2023-06-01T13:14:51;6.10;;;2.50;;
70757;SDS011;59316;52.964;7.102;2023-06-01T13:20:12;7.82;;;2.22;;
70757;SDS011;59316;52.964;7.102;2023-06-01T13:25:34;7.43;;;2.40;;
70757;SDS011;59316;52.964;7.102;2023-06-01T13:30:55;6.75;;;2.35;;
70757;SDS011;59316;52.964;7.102;2023-06-01T13:36:17;6.15;;;2.47;;
70757;SDS011;59316;52.964;7.102;2023-06-01T13:41:38;7.47;;;2.40;;
70757;SDS011;59316;52.964;7.102;2023-06-01T13:47:00;4.47;;;2.35;;
70757;SDS011;59316;52.964;7.102;2023-06-01T13:52:21;10.52;;;2.40;;
70757;SDS011;59316;52.964;7.102;2023-06-01T13:57:43;7.75;;;2.90;;
70757;SDS011;59316;52.964;7.102;2023-06-01T14:03:04;6.97;;;2.70;;
70757;SDS011;59316;52.964;7.102;2023-06-01T14:08:25;6.88;;;2.75;;
70757;SDS011;59316;52.964;7.102;2023-06-01T14:13:47;7.53;;;2.72;;
70757;SDS011;59316;52.964;7.102;2023-06-01T14:19:08;6.28;;;2.58;;
70757;SDS011;59316;52.964;7.102;2023-06-01T14:24:30;6.43;;;2.28;;
70757;SDS011;59316;52.964;7.102;2023-06-01T14:29:51;6.97;;;2.22;;
70757;SDS011;59316;52.964;7.102;2023-06-01T14:35:13;7.80;;;2.10;;
70757;SDS011;59316;52.964;7.102;2023-06-01T14:40:34;7.72;;;2.38;;
70757;SDS011;59316;52.964;7.102;2023-06-01T14:45:56;5.22;;;2.40;;
70757;SDS011;59316;52.964;7.102;2023-06-01T14:51:18;5.70;;;2.10;;
70757;SDS011;59316;52.964;7.102;2023-06-01T14:56:39;2.83;;;1.60;;
70757;SDS011;59316;52.964;7.102;2023-06-01T15:02:03;3.42;;;1.80;;
70757;SDS011;59316;52.964;7.102;2023-06-01T15:07:24;3.63;;;1.67;;
70757;SDS011;59316;52.964;7.102;2023-06-01T15:12:46;3.08;;;1.60;;
70757;SDS011;59316;52.964;7.102;2023-06-01T15:18:07;3.67;;;1.90;;
70757;SDS011;59316;52.964;7.102;2023-06-01T15:23:29;7.10;;;2.45;;
70757;SDS011;59316;52.964;7.102;2023-06-01T15:28:50;6.50;;;2.30;;
70757;SDS011;59316;52.964;7.102;2023-06-01T15:34:12;3.75;;;1.60;;
70757;SDS011;59316;52.964;7.102;2023-06-01T15:39:34;5.03;;;2.10;;
70757;SDS011;59316;52.964;7.102;2023-06-01T15:44:56;6.68;;;2.00;;
70757;SDS011;59316;52.964;7.102;2023-06-01T15:50:19;2.93;;;1.30;;
70757;SDS011;59316;52.964;7.102;2023-06-01T15:55:41;4.13;;;1.75;;
70757;SDS011;59316;52.964;7.102;2023-06-01T16:01:02;4.82;;;1.90;;
70757;SDS011;59316;52.964;7.102;2023-06-01T16:06:37;5.65;;;1.80;;
70757;SDS011;59316;52.964;7.102;2023-06-01T16:11:59;6.43;;;1.80;;
70757;SDS011;59316;52.964;7.102;2023-06-01T16:17:20;6.38;;;2.03;;
70757;SDS011;59316;52.964;7.102;2023-06-01T16:22:42;4.30;;;1.50;;
70757;SDS011;59316;52.964;7.102;2023-06-01T16:28:03;6.13;;;2.20;;
70757;SDS011;59316;52.964;7.102;2023-06-01T16:33:25;5.45;;;1.60;;
70757;SDS011;59316;52.964;7.102;2023-06-01T16:38:48;5.93;;;1.83;;
70757;SDS011;59316;52.964;7.102;2023-06-01T16:44:09;4.15;;;1.88;;
70757;SDS011;59316;52.964;7.102;2023-06-01T16:49:31;4.38;;;1.60;;
70757;SDS011;59316;52.964;7.102;2023-06-01T16:54:52;7.60;;;2.15;;
70757;SDS011;59316;52.964;7.102;2023-06-01T17:00:14;7.15;;;1.80;;
70757;SDS011;59316;52.964;7.102;2023-06-01T17:05:36;8.20;;;2.00;;
70757;SDS011;59316;52.964;7.102;2023-06-01T17:10:57;6.88;;;2.03;;
70757;SDS011;59316;52.964;7.102;2023-06-01T17:16:18;10.10;;;2.88;;
70757;SDS011;59316;52.964;7.102;2023-06-01T17:21:39;6.53;;;2.33;;
70757;SDS011;59316;52.964;7.102;2023-06-01T17:27:01;5.95;;;2.10;;
70757;SDS011;59316;52.964;7.102;2023-06-01T17:32:22;6.18;;;2.17;;
70757;SDS011;59316;52.964;7.102;2023-06-01T17:37:44;12.05;;;2.35;;
70757;SDS011;59316;52.964;7.102;2023-06-01T17:43:05;6.82;;;2.45;;
70757;SDS011;59316;52.964;7.102;2023-06-01T17:48:27;8.98;;;2.47;;
70757;SDS011;59316;52.964;7.102;2023-06-01T17:53:48;6.88;;;2.20;;
70757;SDS011;59316;52.964;7.102;2023-06-01T17:59:10;6.60;;;2.63;;
70757;SDS011;59316;52.964;7.102;2023-06-01T18:04:31;11.55;;;1.98;;
70757;SDS011;59316;52.964;7.102;2023-06-01T18:09:53;6.68;;;1.80;;
70757;SDS011;59316;52.964;7.102;2023-06-01T18:15:15;7.75;;;2.20;;
70757;SDS011;59316;52.964;7.102;2023-06-01T18:20:36;7.90;;;1.90;;
70757;SDS011;59316;52.964;7.102;2023-06-01T18:25:58;6.88;;;1.90;;
70757;SDS011;59316;52.964;7.102;2023-06-01T18:31:18;9.88;;;2.17;;
70757;SDS011;59316;52.964;7.102;2023-06-01T18:36:40;11.02;;;2.95;;
70757;SDS011;59316;52.964;7.102;2023-06-01T18:42:02;8.65;;;3.30;;
70757;SDS011;59316;52.964;7.102;2023-06-01T18:47:24;11.18;;;2.20;;
70757;SDS011;59316;52.964;7.102;2023-06-01T18:52:45;7.00;;;2.22;;
70757;SDS011;59316;52.964;7.102;2023-06-01T18:58:07;8.23;;;2.15;;
70757;SDS011;59316;52.964;7.102;2023-06-01T19:03:28;6.38;;;2.10;;
70757;SDS011;59316;52.964;7.102;2023-06-01T19:08:50;10.25;;;2.22;;
70757;SDS011;59316;52.964;7.102;2023-06-01T19:14:15;7.50;;;2.80;;
70757;SDS011;59316;52.964;7.102;2023-06-01T19:19:36;9.60;;;2.42;;
70757;SDS011;59316;52.964;7.102;2023-06-01T19:24:58;14.63;;;2.75;;
70757;SDS011;59316;52.964;7.102;2023-06-01T19:30:20;11.20;;;2.72;;
70757;SDS011;59316;52.964;7.102;2023-06-01T19:35:43;9.13;;;2.70;;
70757;SDS011;59316;52.964;7.102;2023-06-01T19:41:05;8.52;;;2.47;;
70757;SDS011;59316;52.964;7.102;2023-06-01T19:46:26;15.52;;;2.92;;
70757;SDS011;59316;52.964;7.102;2023-06-01T19:51:48;11.35;;;2.60;;
70757;SDS011;59316;52.964;7.102;2023-06-01T19:57:09;11.13;;;3.10;;
70757;SDS011;59316;52.964;7.102;2023-06-01T20:02:44;8.40;;;2.58;;
70757;SDS011;59316;52.964;7.102;2023-06-01T20:08:10;14.55;;;2.88;;
70757;SDS011;59316;52.964;7.102;2023-06-01T20:13:34;15.60;;;2.80;;
70757;SDS011;59316;52.964;7.102;2023-06-01T20:18:55;11.65;;;2.70;;
70757;SDS011;59316;52.964;7.102;2023-06-01T20:24:17;12.10;;;2.60;;
70757;SDS011;59316;52.964;7.102;2023-06-01T20:29:42;11.82;;;2.30;;
70757;SDS011;59316;52.964;7.102;2023-06-01T20:35:07;11.90;;;2.75;;
70757;SDS011;59316;52.964;7.102;2023-06-01T20:46:09;10.73;;;2.50;;
70757;SDS011;59316;52.964;7.102;2023-06-01T20:51:33;8.95;;;2.40;;
70757;SDS011;59316;52.964;7.102;2023-06-01T20:57:02;12.75;;;2.35;;
70757;SDS011;59316;52.964;7.102;2023-06-01T21:02:24;8.18;;;2.50;;
70757;SDS011;59316;52.964;7.102;2023-06-01T21:07:46;8.55;;;2.60;;
70757;SDS011;59316;52.964;7.102;2023-06-01T21:13:07;6.70;;;2.40;;
70757;SDS011;59316;52.964;7.102;2023-06-01T21:18:29;10.45;;;2.85;;
70757;SDS011;59316;52.964;7.102;2023-06-01T21:23:50;9.63;;;3.00;;
70757;SDS011;59316;52.964;7.102;2023-06-01T21:29:12;12.25;;;2.67;;
70757;SDS011;59316;52.964;7.102;2023-06-01T21:34:33;12.02;;;2.55;;
70757;SDS011;59316;52.964;7.102;2023-06-01T21:39:55;12.00;;;2.60;;
70757;SDS011;59316;52.964;7.102;2023-06-01T21:45:17;11.25;;;2.58;;
70757;SDS011;59316;52.964;7.102;2023-06-01T21:50:39;15.05;;;4.60;;
70757;SDS011;59316;52.964;7.102;2023-06-01T21:56:01;20.17;;;3.15;;
70757;SDS011;59316;52.964;7.102;2023-06-01T22:01:22;14.05;;;3.08;;
70757;SDS011;59316;52.964;7.102;2023-06-01T22:06:44;12.95;;;2.50;;
70757;SDS011;59316;52.964;7.102;2023-06-01T22:12:06;8.93;;;2.50;;
70757;SDS011;59316;52.964;7.102;2023-06-01T22:17:28;10.30;;;2.90;;
70757;SDS011;59316;52.964;7.102;2023-06-01T22:22:50;10.93;;;3.08;;
70757;SDS011;59316;52.964;7.102;2023-06-01T22:28:11;12.48;;;3.30;;
70757;SDS011;59316;52.964;7.102;2023-06-01T22:33:33;9.23;;;2.33;;
70757;SDS011;59316;52.964;7.102;2023-06-01T22:38:55;9.43;;;2.42;;
70757;SDS011;59316;52.964;7.102;2023-06-01T22:44:16;9.63;;;2.53;;
70757;SDS011;59316;52.964;7.102;2023-06-01T22:49:40;16.42;;;3.42;;
70757;SDS011;59316;52.964;7.102;2023-06-01T22:55:03;12.20;;;2.70;;
70757;SDS011;59316;52.964;7.102;2023-06-01T23:00:25;15.77;;;2.63;;
70757;SDS011;59316;52.964;7.102;2023-06-01T23:05:48;9.82;;;2.67;;
70757;SDS011;59316;52.964;7.102;2023-06-01T23:11:09;12.10;;;3.28;;
70757;SDS011;59316;52.964;7.102;2023-06-01T23:16:31;11.80;;;2.88;;
70757;SDS011;59316;52.964;7.102;2023-06-01T23:21:52;8.13;;;2.80;;
70757;SDS011;59316;52.964;7.102;2023-06-01T23:27:14;14.20;;;2.92;;
70757;SDS011;59316;52.964;7.102;2023-06-01T23:32:35;13.77;;;2.90;;
70757;SDS011;59316;52.964;7.102;2023-06-01T23:37:57;6.60;;;2.35;;
70757;SDS011;59316;52.964;7.102;2023-06-01T23:43:18;6.43;;;2.58;;
70757;SDS011;59316;52.964;7.102;2023-06-01T23:48:40;12.02;;;2.63;;
70757;SDS011;59316;52.964;7.102;2023-06-01T23:54:01;13.20;;;3.05;;
70757;SDS011;59316;52.964;7.102;2023-06-01T23:59:22;10.52;;;2.17;;
